Terminal Aerodrome Forecast
Issued by NWS

Current Version | Previous Version | Graphics & Text | Print | Product List | Glossary On
Versions: 1 2 3 4 5 6 7 8 9 10 11 12 13 14 15 16 17 18 19
000
FTUS41 KILN 281100
TAFLUK
TAF
KLUK 281120Z 2812/2912 06003KT P6SM SCT100 OVC220
     FM281300 09004KT P6SM FEW050 OVC250
     FM290000 VRB03KT P6SM SCT250
     FM290800 00000KT 1SM BR SCT250=

USA.gov is the U.S. government's official web portal to all federal, state and local government web resources and services.